createdAt,value
2022-11-29T00:01:05.130Z,32
2022-11-29T00:02:13.519Z,32
2022-11-29T00:03:21.924Z,32
2022-11-29T00:04:30.352Z,29.700001
2022-11-29T00:05:38.685Z,29.700001
2022-11-29T00:06:47.097Z,29.700001
2022-11-29T00:07:55.581Z,30.200001
2022-11-29T00:09:03.916Z,30.200001
2022-11-29T00:10:12.242Z,30.200001
2022-11-29T00:11:20.787Z,28.4
2022-11-29T00:12:29.131Z,28.4
2022-11-29T00:13:37.465Z,28.4
2022-11-29T00:14:46.283Z,24.4
2022-11-29T00:15:54.335Z,24.4
2022-11-29T00:17:03.026Z,24.4
2022-11-29T00:18:11.227Z,23.6
2022-11-29T00:19:19.567Z,23.6
2022-11-29T00:20:27.907Z,23.6
2022-11-29T00:21:36.438Z,26.1
2022-11-29T00:22:44.801Z,26.1
2022-11-29T00:23:53.117Z,26.1
2022-11-29T00:25:01.648Z,26.200001
2022-11-29T00:26:09.981Z,26.200001
2022-11-29T00:27:18.324Z,26.200001
2022-11-29T00:28:26.867Z,26.6
2022-11-29T00:29:35.209Z,26.6
2022-11-29T00:30:43.599Z,26.6
2022-11-29T00:31:52.085Z,22.700001
2022-11-29T00:33:00.440Z,22.700001
2022-11-29T00:34:08.785Z,22.700001
2022-11-29T00:35:17.323Z,22
2022-11-29T00:36:25.653Z,22
2022-11-29T00:37:34.017Z,22
2022-11-29T00:38:42.571Z,20.6
2022-11-29T00:39:50.895Z,20.6
2022-11-29T00:40:59.229Z,20.6
2022-11-29T00:42:07.765Z,21.299999
2022-11-29T00:43:16.117Z,21.299999
2022-11-29T00:44:24.444Z,21.299999
2022-11-29T00:45:32.991Z,19.799999
2022-11-29T00:46:41.344Z,19.799999
2022-11-29T00:47:49.680Z,19.799999
2022-11-29T00:48:58.217Z,21.200001
2022-11-29T00:50:06.552Z,21.200001
2022-11-29T00:51:14.889Z,21.200001
2022-11-29T00:52:23.435Z,22.700001
2022-11-29T00:53:31.776Z,22.700001
2022-11-29T00:54:40.138Z,22.700001
2022-11-29T00:55:48.642Z,22.5
2022-11-29T00:56:56.981Z,22.5
2022-11-29T00:58:05.328Z,22.5
2022-11-29T00:59:13.870Z,21.299999
2022-11-29T01:00:22.204Z,21.299999
2022-11-29T01:01:30.551Z,21.299999
2022-11-29T01:02:39.125Z,22.9
2022-11-29T01:03:47.421Z,22.9
2022-11-29T01:04:55.766Z,22.9
2022-11-29T01:06:04.312Z,22.5
2022-11-29T01:07:12.648Z,22.5
2022-11-29T01:08:20.982Z,22.5
2022-11-29T01:09:29.519Z,22.9
2022-11-29T01:10:37.883Z,22.9
2022-11-29T01:11:46.190Z,22.9
2022-11-29T01:12:54.759Z,23.700001
2022-11-29T01:14:03.083Z,23.700001
2022-11-29T01:15:11.424Z,23.700001
2022-11-29T01:16:20.089Z,20.1
2022-11-29T01:17:28.303Z,20.1
2022-11-29T01:18:36.650Z,20.1
2022-11-29T01:19:49.405Z,20.799999
2022-11-29T01:20:53.523Z,20.799999
2022-11-29T01:22:01.853Z,20.799999
2022-11-29T01:23:10.401Z,21.1
2022-11-29T01:24:18.747Z,21.1
2022-11-29T01:25:27.081Z,21.1
2022-11-29T01:26:35.656Z,21.700001
2022-11-29T01:27:43.980Z,21.700001
2022-11-29T01:28:52.303Z,21.700001
2022-11-29T01:30:00.841Z,19.9
2022-11-29T01:31:09.195Z,19.9
2022-11-29T01:32:17.514Z,19.9
2022-11-29T01:33:26.063Z,20.1
2022-11-29T01:34:34.404Z,20.1
2022-11-29T01:35:42.737Z,20.1
2022-11-29T01:36:51.282Z,20.700001
2022-11-29T01:37:59.628Z,20.700001
2022-11-29T01:39:07.971Z,20.700001
2022-11-29T01:40:16.505Z,19.299999
2022-11-29T01:41:24.840Z,19.299999
2022-11-29T01:42:33.198Z,19.299999
2022-11-29T01:43:41.721Z,19.4
2022-11-29T01:44:50.050Z,19.4
2022-11-29T01:45:58.448Z,19.4
2022-11-29T01:47:06.925Z,20.1
2022-11-29T01:48:15.275Z,20.1
2022-11-29T01:49:23.607Z,20.1
2022-11-29T01:50:32.142Z,21.299999
2022-11-29T01:51:40.482Z,21.299999
2022-11-29T01:52:48.818Z,21.299999
2022-11-29T01:53:57.360Z,21.299999
2022-11-29T01:55:05.695Z,21.299999
2022-11-29T01:56:14.066Z,21.299999
2022-11-29T01:57:22.568Z,20
2022-11-29T01:58:30.943Z,20
2022-11-29T01:59:39.245Z,20
2022-11-29T02:00:47.774Z,19.9
2022-11-29T02:01:56.113Z,19.9
2022-11-29T02:03:04.454Z,19.9
2022-11-29T02:04:12.995Z,19.200001
2022-11-29T02:05:21.332Z,19.200001
2022-11-29T02:06:29.650Z,19.200001
2022-11-29T02:07:38.249Z,18.200001
2022-11-29T02:08:46.541Z,18.200001
2022-11-29T02:09:54.860Z,18.200001
2022-11-29T02:11:03.403Z,19.299999
2022-11-29T02:12:11.751Z,19.299999
2022-11-29T02:13:20.108Z,19.299999
2022-11-29T02:14:28.682Z,19.799999
2022-11-29T02:15:37.055Z,19.799999
2022-11-29T02:16:45.327Z,19.799999
2022-11-29T02:17:53.887Z,20.299999
2022-11-29T02:19:02.219Z,20.299999
2022-11-29T02:20:10.557Z,20.299999
2022-11-29T02:21:19.106Z,18
2022-11-29T02:22:27.438Z,18
2022-11-29T02:23:35.783Z,18
2022-11-29T02:24:44.505Z,19.200001
2022-11-29T02:25:52.650Z,19.200001
2022-11-29T02:27:00.984Z,19.200001
2022-11-29T02:28:09.534Z,18.9
2022-11-29T02:29:17.863Z,18.9
2022-11-29T02:30:26.228Z,18.9
2022-11-29T02:31:34.742Z,20.1
2022-11-29T02:32:43.097Z,20.1
2022-11-29T02:33:51.406Z,20.1
2022-11-29T02:34:59.945Z,20.299999
2022-11-29T02:36:08.285Z,20.299999
2022-11-29T02:37:16.620Z,20.299999
2022-11-29T02:38:25.169Z,19.1
2022-11-29T02:39:33.512Z,19.1
2022-11-29T02:40:41.841Z,19.1
2022-11-29T02:41:50.393Z,18.700001
2022-11-29T02:42:58.743Z,18.700001
2022-11-29T02:44:07.075Z,18.700001
2022-11-29T02:45:15.607Z,18.200001
2022-11-29T02:46:24.007Z,18.200001
2022-11-29T02:47:32.287Z,18.200001
2022-11-29T02:48:40.833Z,18.700001
2022-11-29T02:49:49.172Z,18.700001
2022-11-29T02:50:57.506Z,18.700001
2022-11-29T02:52:06.053Z,19.5
2022-11-29T02:53:14.404Z,19.5
2022-11-29T02:54:22.737Z,19.5
2022-11-29T02:55:31.283Z,19.200001
2022-11-29T02:56:39.620Z,19.200001
2022-11-29T02:57:47.974Z,19.200001
2022-11-29T02:58:56.533Z,18.799999
2022-11-29T03:00:04.865Z,18.799999
2022-11-29T03:01:13.221Z,18.799999
2022-11-29T03:02:21.805Z,19.200001
2022-11-29T03:03:30.102Z,19.200001
2022-11-29T03:04:38.433Z,19.200001
2022-11-29T03:05:46.975Z,19.4
2022-11-29T03:06:55.304Z,19.4
2022-11-29T03:08:03.650Z,19.4
2022-11-29T03:09:12.187Z,19.6
2022-11-29T03:10:20.511Z,19.6
2022-11-29T03:11:28.845Z,19.6
2022-11-29T03:12:37.391Z,19.1
2022-11-29T03:13:45.723Z,19.1
2022-11-29T03:14:54.059Z,19.1
2022-11-29T03:16:02.636Z,19.5
2022-11-29T03:17:10.919Z,19.5
2022-11-29T03:18:19.339Z,19.5
2022-11-29T03:19:27.792Z,19.299999
2022-11-29T03:20:36.131Z,19.299999
2022-11-29T03:21:44.457Z,19.299999
2022-11-29T03:22:53.020Z,17.799999
2022-11-29T03:24:01.333Z,17.799999
2022-11-29T03:25:09.670Z,17.799999
2022-11-29T03:26:18.205Z,19.700001
2022-11-29T03:27:26.536Z,19.700001
2022-11-29T03:28:34.876Z,19.700001
2022-11-29T03:29:43.422Z,20.4
2022-11-29T03:30:51.772Z,20.4
2022-11-29T03:32:00.094Z,20.4
2022-11-29T03:33:08.642Z,19.5
2022-11-29T03:34:16.998Z,19.5
2022-11-29T03:35:25.295Z,19.5
2022-11-29T03:36:33.844Z,18.799999
2022-11-29T03:37:42.175Z,18.799999
2022-11-29T03:38:50.521Z,18.799999
2022-11-29T03:39:59.076Z,17.799999
2022-11-29T03:41:07.410Z,17.799999
2022-11-29T03:42:15.750Z,17.799999
2022-11-29T03:43:24.298Z,17.799999
2022-11-29T03:44:32.622Z,17.799999
2022-11-29T03:45:40.973Z,17.799999
2022-11-29T03:46:49.494Z,25
2022-11-29T03:47:57.833Z,25
2022-11-29T03:49:06.176Z,25
2022-11-29T03:50:14.727Z,23.5
2022-11-29T03:51:23.037Z,23.5
2022-11-29T03:52:31.370Z,23.5
2022-11-29T03:53:39.924Z,24.6
2022-11-29T03:54:48.258Z,24.6
2022-11-29T03:55:56.589Z,24.6
2022-11-29T03:57:05.138Z,22.299999
2022-11-29T03:58:13.469Z,22.299999
2022-11-29T03:59:21.806Z,22.299999
2022-11-29T04:00:30.342Z,23.9
2022-11-29T04:01:38.746Z,23.9
2022-11-29T04:02:47.065Z,23.9
2022-11-29T04:03:55.557Z,25
2022-11-29T04:05:03.892Z,25
2022-11-29T04:06:12.248Z,25
2022-11-29T04:07:20.792Z,24.4
2022-11-29T04:08:29.112Z,24.4
2022-11-29T04:09:37.450Z,24.4
2022-11-29T04:10:45.989Z,24.4
2022-11-29T04:11:54.329Z,24.4
2022-11-29T04:13:02.667Z,24.4
2022-11-29T04:14:11.211Z,25.299999
2022-11-29T04:15:19.547Z,25.299999
2022-11-29T04:16:27.882Z,25.299999
2022-11-29T04:17:36.421Z,25.799999
2022-11-29T04:18:44.762Z,25.799999
2022-11-29T04:19:53.101Z,25.799999
2022-11-29T04:21:01.635Z,29.1
2022-11-29T04:22:09.987Z,29.1
2022-11-29T04:23:18.306Z,29.1
2022-11-29T04:24:26.851Z,27.299999
2022-11-29T04:25:35.167Z,27.299999
2022-11-29T04:26:43.511Z,27.299999
2022-11-29T04:27:52.057Z,26.9
2022-11-29T04:29:00.382Z,26.9
2022-11-29T04:30:08.710Z,26.9
2022-11-29T04:31:17.401Z,22.700001
2022-11-29T04:32:25.586Z,22.700001
2022-11-29T04:33:33.962Z,22.700001
2022-11-29T04:34:42.695Z,22.9
2022-11-29T04:35:50.859Z,22.9
2022-11-29T04:36:59.184Z,22.9
2022-11-29T04:38:07.757Z,24
2022-11-29T04:39:16.061Z,24
2022-11-29T04:40:24.389Z,24
2022-11-29T04:41:32.930Z,24.4
2022-11-29T04:42:41.275Z,24.4
2022-11-29T04:43:49.607Z,24.4
2022-11-29T04:44:58.141Z,25.299999
2022-11-29T04:46:06.533Z,25.299999
2022-11-29T04:47:14.811Z,25.299999
2022-11-29T04:48:23.358Z,26.9
2022-11-29T04:49:31.689Z,26.9
2022-11-29T04:50:40.022Z,26.9
2022-11-29T04:51:48.553Z,25.4
2022-11-29T04:52:56.909Z,25.4
2022-11-29T04:54:05.260Z,25.4
2022-11-29T04:55:17.190Z,28.1
2022-11-29T04:56:22.089Z,28.1
2022-11-29T04:57:30.409Z,28.1
2022-11-29T04:58:38.971Z,28.700001
2022-11-29T04:59:47.297Z,28.700001
2022-11-29T05:00:55.639Z,28.700001
2022-11-29T05:02:04.236Z,34.799999
2022-11-29T05:03:12.538Z,34.799999
2022-11-29T05:04:20.875Z,34.799999
2022-11-29T05:05:29.434Z,29.1
2022-11-29T05:06:37.760Z,29.1
2022-11-29T05:07:46.153Z,29.1
2022-11-29T05:08:54.658Z,27.5
2022-11-29T05:10:03.998Z,27.5
2022-11-29T05:11:12.311Z,27.5
2022-11-29T05:12:20.857Z,30.6
2022-11-29T05:13:29.250Z,30.6
2022-11-29T05:14:40.101Z,30.6
2022-11-29T05:15:48.641Z,26.799999
2022-11-29T05:16:56.949Z,26.799999
2022-11-29T05:18:05.291Z,26.799999
2022-11-29T05:19:13.839Z,27.299999
2022-11-29T05:20:22.600Z,27.299999
2022-11-29T05:21:30.942Z,27.299999
2022-11-29T05:22:39.485Z,27.700001
2022-11-29T05:23:47.818Z,27.700001
2022-11-29T05:24:56.163Z,27.700001
2022-11-29T05:26:04.733Z,29.4
2022-11-29T05:27:13.051Z,29.4
2022-11-29T05:28:21.401Z,29.4
2022-11-29T05:29:29.939Z,27.299999
2022-11-29T05:30:38.291Z,27.299999
2022-11-29T05:31:46.637Z,27.299999
2022-11-29T05:32:55.194Z,27.1
2022-11-29T05:34:03.532Z,27.1
2022-11-29T05:35:11.856Z,27.1
2022-11-29T05:36:20.395Z,28
2022-11-29T05:37:28.715Z,28
2022-11-29T05:38:37.063Z,28
2022-11-29T05:39:45.599Z,25.299999
2022-11-29T05:40:53.941Z,25.299999
2022-11-29T05:42:02.285Z,25.299999
2022-11-29T05:43:10.810Z,27.5
2022-11-29T05:44:19.145Z,27.5
2022-11-29T05:45:27.490Z,27.5
2022-11-29T05:46:36.079Z,24.299999
2022-11-29T05:47:44.366Z,24.299999
2022-11-29T05:48:52.694Z,24.299999
2022-11-29T05:50:01.238Z,27
2022-11-29T05:51:09.570Z,27
2022-11-29T05:52:17.903Z,27
2022-11-29T05:53:26.449Z,26.4
2022-11-29T05:54:34.808Z,26.4
2022-11-29T05:55:43.148Z,26.4
2022-11-29T05:56:51.676Z,27
2022-11-29T05:58:00.074Z,27
2022-11-29T05:59:08.406Z,27
2022-11-29T06:00:16.960Z,30.799999
2022-11-29T06:01:25.314Z,30.799999
2022-11-29T06:02:33.673Z,30.799999
2022-11-29T06:03:42.175Z,27.4
2022-11-29T06:04:50.510Z,27.4
2022-11-29T06:05:58.823Z,27.4
2022-11-29T06:07:07.355Z,26.700001
2022-11-29T06:08:15.694Z,26.700001
2022-11-29T06:09:24.028Z,26.700001
2022-11-29T06:10:32.560Z,28.700001
2022-11-29T06:11:40.885Z,28.700001
2022-11-29T06:12:49.229Z,28.700001
2022-11-29T06:13:57.782Z,28
2022-11-29T06:15:06.083Z,28
2022-11-29T06:16:14.519Z,28
2022-11-29T06:17:22.972Z,30.299999
2022-11-29T06:18:31.318Z,30.299999
2022-11-29T06:19:39.641Z,30.299999
2022-11-29T06:20:48.196Z,28.6
2022-11-29T06:21:56.541Z,28.6
2022-11-29T06:23:04.879Z,28.6
2022-11-29T06:24:13.410Z,27.9
2022-11-29T06:25:21.740Z,27.9
2022-11-29T06:26:30.074Z,27.9
2022-11-29T06:27:38.618Z,25.6
2022-11-29T06:28:46.950Z,25.6
2022-11-29T06:29:55.302Z,25.6
2022-11-29T06:31:03.874Z,27.700001
2022-11-29T06:32:12.157Z,27.700001
2022-11-29T06:33:20.498Z,27.700001
2022-11-29T06:34:30.806Z,26.200001
2022-11-29T06:35:37.406Z,26.200001
2022-11-29T06:36:45.744Z,26.200001
2022-11-29T06:37:54.302Z,25.700001
2022-11-29T06:39:02.620Z,25.700001
2022-11-29T06:40:10.951Z,25.700001
2022-11-29T06:41:19.482Z,26.700001
2022-11-29T06:42:27.818Z,26.700001
2022-11-29T06:43:36.157Z,26.700001
2022-11-29T06:44:44.986Z,24.700001
2022-11-29T06:45:53.055Z,24.700001
2022-11-29T06:47:01.416Z,24.700001
2022-11-29T06:48:09.917Z,25.9
2022-11-29T06:49:18.245Z,25.9
2022-11-29T06:50:26.580Z,25.9
2022-11-29T06:51:35.133Z,26
2022-11-29T06:52:43.464Z,26
2022-11-29T06:53:51.801Z,26
2022-11-29T06:55:00.334Z,25.200001
2022-11-29T06:56:08.676Z,25.200001
2022-11-29T06:57:17.006Z,25.200001
2022-11-29T06:58:25.558Z,23.9
2022-11-29T06:59:33.884Z,23.9
2022-11-29T07:00:42.314Z,23.9
2022-11-29T07:01:50.813Z,23.799999
2022-11-29T07:02:59.100Z,23.799999
2022-11-29T07:04:07.426Z,23.799999
2022-11-29T07:05:15.968Z,23.4
2022-11-29T07:06:24.295Z,23.4
2022-11-29T07:07:32.644Z,23.4
2022-11-29T07:08:41.179Z,26.9
2022-11-29T07:09:49.517Z,26.9
2022-11-29T07:10:57.842Z,26.9
2022-11-29T07:12:06.386Z,26.700001
2022-11-29T07:13:14.734Z,26.700001
2022-11-29T07:14:23.055Z,26.700001
2022-11-29T07:15:31.597Z,27.6
2022-11-29T07:16:39.995Z,27.6
2022-11-29T07:17:48.300Z,27.6
2022-11-29T07:18:56.810Z,30.4
2022-11-29T07:20:05.149Z,30.4
2022-11-29T07:21:13.496Z,30.4
2022-11-29T07:22:22.021Z,30.700001
2022-11-29T07:23:30.356Z,30.700001
2022-11-29T07:24:38.721Z,30.700001
2022-11-29T07:25:47.244Z,28.1
2022-11-29T07:26:59.534Z,28.1
2022-11-29T07:28:03.914Z,28.1
2022-11-29T07:29:12.450Z,28.4
2022-11-29T07:30:20.778Z,28.4
2022-11-29T07:31:29.153Z,28.4
2022-11-29T07:32:37.646Z,27.299999
2022-11-29T07:33:46.012Z,27.299999
2022-11-29T07:34:54.321Z,27.299999
2022-11-29T07:36:02.846Z,27.700001
2022-11-29T07:37:11.182Z,27.700001
2022-11-29T07:38:19.512Z,27.700001
2022-11-29T07:39:28.042Z,25.6
2022-11-29T07:40:37.856Z,25.6
2022-11-29T07:41:44.695Z,25.6
2022-11-29T07:42:53.227Z,27.799999
2022-11-29T07:44:01.556Z,27.799999
2022-11-29T07:45:09.877Z,27.799999
2022-11-29T07:46:18.464Z,26.9
2022-11-29T07:47:29.073Z,26.9
2022-11-29T07:48:35.070Z,26.9
2022-11-29T07:49:43.634Z,27
2022-11-29T07:50:51.929Z,27
2022-11-29T07:52:00.255Z,27
2022-11-29T07:53:08.796Z,26.6
2022-11-29T07:54:17.147Z,26.6
2022-11-29T07:55:25.491Z,26.6
2022-11-29T07:56:34.029Z,27.299999
2022-11-29T07:57:42.354Z,27.299999
2022-11-29T07:58:50.775Z,27.299999
2022-11-29T07:59:59.219Z,25.799999
2022-11-29T08:01:07.630Z,25.799999
2022-11-29T08:02:15.926Z,25.799999
2022-11-29T08:03:24.421Z,26.1
2022-11-29T08:04:32.747Z,26.1
2022-11-29T08:05:41.096Z,26.1
2022-11-29T08:06:49.594Z,24.6
2022-11-29T08:07:57.997Z,24.6
2022-11-29T08:09:06.252Z,24.6
2022-11-29T08:10:14.789Z,24.4
2022-11-29T08:11:23.117Z,24.4
2022-11-29T08:12:31.442Z,24.4
2022-11-29T08:13:39.983Z,27.700001
2022-11-29T08:14:48.482Z,27.700001
2022-11-29T08:15:56.710Z,27.700001
2022-11-29T08:17:05.217Z,25.4
2022-11-29T08:18:13.563Z,25.4
2022-11-29T08:19:21.888Z,25.4
2022-11-29T08:20:30.427Z,24.200001
2022-11-29T08:21:38.778Z,24.200001
2022-11-29T08:22:47.089Z,24.200001
2022-11-29T08:23:55.622Z,25.4
2022-11-29T08:25:03.991Z,25.4
2022-11-29T08:26:12.335Z,25.4
2022-11-29T08:27:20.867Z,27.200001
2022-11-29T08:28:29.205Z,27.200001
2022-11-29T08:29:37.536Z,27.200001
2022-11-29T08:30:46.066Z,24.200001
2022-11-29T08:31:54.452Z,24.200001
2022-11-29T08:33:02.757Z,24.200001
2022-11-29T08:34:11.318Z,23.9
2022-11-29T08:35:19.639Z,23.9
2022-11-29T08:36:27.969Z,23.9
2022-11-29T08:37:36.529Z,22.6
2022-11-29T08:38:44.847Z,22.6
2022-11-29T08:39:53.172Z,22.6
2022-11-29T08:41:01.710Z,23.6
2022-11-29T08:42:10.039Z,23.6
2022-11-29T08:43:18.373Z,23.6
2022-11-29T08:44:26.904Z,25.700001
2022-11-29T08:45:35.265Z,25.700001
2022-11-29T08:46:43.557Z,25.700001
2022-11-29T08:47:52.096Z,25.6
2022-11-29T08:49:00.431Z,25.6
2022-11-29T08:50:08.754Z,25.6
2022-11-29T08:51:17.290Z,23.4
2022-11-29T08:52:25.623Z,23.4
2022-11-29T08:53:33.982Z,23.4
2022-11-29T08:54:42.789Z,25.1
2022-11-29T08:55:50.830Z,25.1
2022-11-29T08:57:31.308Z,25.1
2022-11-29T08:58:07.704Z,25.6
2022-11-29T08:59:16.035Z,25.6
2022-11-29T09:00:24.366Z,25.6
2022-11-29T09:01:33.029Z,23.700001
2022-11-29T09:02:41.341Z,23.700001
2022-11-29T09:03:49.586Z,23.700001
2022-11-29T09:04:58.115Z,25
2022-11-29T09:06:11.909Z,25
2022-11-29T09:07:14.882Z,25
2022-11-29T09:08:23.336Z,24.4
2022-11-29T09:09:31.691Z,24.4
2022-11-29T09:10:40.001Z,24.4
2022-11-29T09:11:49.650Z,27.4
2022-11-29T09:12:56.860Z,27.4
2022-11-29T09:14:05.187Z,27.4
2022-11-29T09:15:13.723Z,25.200001
2022-11-29T09:16:22.069Z,25.200001
2022-11-29T09:17:30.404Z,25.200001
2022-11-29T09:18:38.948Z,26.299999
2022-11-29T09:19:47.288Z,26.299999
2022-11-29T09:20:55.616Z,26.299999
2022-11-29T09:22:04.157Z,26
2022-11-29T09:23:12.526Z,26
2022-11-29T09:24:20.856Z,26
2022-11-29T09:25:29.450Z,25.299999
2022-11-29T09:26:37.714Z,25.299999
2022-11-29T09:27:46.044Z,25.299999
2022-11-29T09:28:54.570Z,24.4
2022-11-29T09:30:02.897Z,24.4
2022-11-29T09:31:11.231Z,24.4
2022-11-29T09:32:19.761Z,25.6
2022-11-29T09:33:28.111Z,25.6
2022-11-29T09:34:36.444Z,25.6
2022-11-29T09:35:44.977Z,25.4
2022-11-29T09:36:53.302Z,25.4
2022-11-29T09:38:01.638Z,25.4
2022-11-29T09:39:10.183Z,24.1
2022-11-29T09:40:18.503Z,24.1
2022-11-29T09:41:26.858Z,24.1
2022-11-29T09:42:35.370Z,24.799999
2022-11-29T09:43:43.715Z,24.799999
2022-11-29T09:44:52.035Z,24.799999
2022-11-29T09:46:00.632Z,24.799999
2022-11-29T09:47:08.918Z,24.799999
2022-11-29T09:48:17.278Z,24.799999
2022-11-29T09:49:25.811Z,23.299999
2022-11-29T09:50:34.155Z,23.299999
2022-11-29T09:51:44.289Z,23.299999
2022-11-29T09:52:51.011Z,22.799999
2022-11-29T09:53:59.347Z,22.799999
2022-11-29T09:55:07.675Z,22.799999
2022-11-29T09:56:16.225Z,23.700001
2022-11-29T09:57:24.584Z,23.700001
2022-11-29T09:58:32.903Z,23.700001
2022-11-29T09:59:41.437Z,22.299999
2022-11-29T10:00:49.805Z,22.299999
2022-11-29T10:01:58.103Z,22.299999
2022-11-29T10:03:06.650Z,22.5
2022-11-29T10:04:14.996Z,22.5
2022-11-29T10:05:23.338Z,22.5
2022-11-29T10:06:31.878Z,23.6
2022-11-29T10:07:40.228Z,23.6
2022-11-29T10:08:48.555Z,23.6
2022-11-29T10:09:57.091Z,24.200001
2022-11-29T10:11:05.419Z,24.200001
2022-11-29T10:12:13.770Z,24.200001
2022-11-29T10:13:22.331Z,24.1
2022-11-29T10:14:30.640Z,24.1
2022-11-29T10:15:39.044Z,24.1
2022-11-29T10:16:47.575Z,23.5
2022-11-29T10:17:55.858Z,23.5
2022-11-29T10:19:04.183Z,23.5
2022-11-29T10:20:12.719Z,25.299999
2022-11-29T10:21:21.061Z,25.299999
2022-11-29T10:22:29.399Z,25.299999
2022-11-29T10:23:37.959Z,22.799999
2022-11-29T10:24:46.479Z,22.799999
2022-11-29T10:25:54.631Z,22.799999
2022-11-29T10:27:03.184Z,25.4
2022-11-29T10:28:11.541Z,25.4
2022-11-29T10:29:19.899Z,25.4
2022-11-29T10:30:28.449Z,23
2022-11-29T10:31:36.770Z,23
2022-11-29T10:32:45.142Z,23
2022-11-29T10:33:53.700Z,27.700001
2022-11-29T10:35:02.038Z,27.700001
2022-11-29T10:36:10.362Z,27.700001
2022-11-29T10:37:18.910Z,30
2022-11-29T10:38:31.581Z,30
2022-11-29T10:39:35.573Z,30
2022-11-29T10:40:44.114Z,29.5
2022-11-29T10:41:52.471Z,29.5
2022-11-29T10:43:00.811Z,29.5
2022-11-29T10:44:09.357Z,27.6
2022-11-29T10:45:17.730Z,27.6
2022-11-29T10:46:26.066Z,27.6
2022-11-29T10:47:34.585Z,27.5
2022-11-29T10:48:42.919Z,27.5
2022-11-29T10:49:51.259Z,27.5
2022-11-29T10:50:59.793Z,23.5
2022-11-29T10:52:08.130Z,23.5
2022-11-29T10:53:16.493Z,23.5
2022-11-29T10:54:25.034Z,25.4
2022-11-29T10:55:33.364Z,25.4
2022-11-29T10:56:41.703Z,25.4
2022-11-29T10:57:50.250Z,21.299999
2022-11-29T10:58:58.577Z,21.299999
2022-11-29T11:00:06.918Z,21.299999
2022-11-29T11:01:15.518Z,22.299999
2022-11-29T11:02:23.781Z,22.299999
2022-11-29T11:03:32.123Z,22.299999
2022-11-29T11:04:40.672Z,21.6
2022-11-29T11:05:49.033Z,21.6
2022-11-29T11:06:57.355Z,21.6
2022-11-29T11:08:05.913Z,23
2022-11-29T11:09:14.236Z,23
2022-11-29T11:10:22.580Z,23
2022-11-29T11:11:31.122Z,23.299999
2022-11-29T11:12:39.452Z,23.299999
2022-11-29T11:13:47.799Z,23.299999
2022-11-29T11:14:56.341Z,19.6
2022-11-29T11:16:04.673Z,19.6
2022-11-29T11:17:13.094Z,19.6
2022-11-29T11:18:21.567Z,21.5
2022-11-29T11:19:29.892Z,21.5
2022-11-29T11:20:38.237Z,21.5
2022-11-29T11:21:46.776Z,19.799999
2022-11-29T11:22:55.113Z,19.799999
2022-11-29T11:24:03.436Z,19.799999
2022-11-29T11:25:11.976Z,18.5
2022-11-29T11:26:20.313Z,18.5
2022-11-29T11:27:28.642Z,18.5
2022-11-29T11:28:37.210Z,23.299999
2022-11-29T11:29:45.547Z,23.299999
2022-11-29T11:30:53.935Z,23.299999
2022-11-29T11:32:02.417Z,15.3
2022-11-29T11:33:10.804Z,15.3
2022-11-29T11:34:19.104Z,15.3
2022-11-29T11:35:27.662Z,13
2022-11-29T11:36:35.992Z,13
2022-11-29T11:37:44.346Z,13
2022-11-29T11:38:52.902Z,13.5
2022-11-29T11:40:01.281Z,13.5
2022-11-29T11:41:09.587Z,13.5
2022-11-29T11:42:18.127Z,14.5
2022-11-29T11:43:26.480Z,14.5
2022-11-29T11:44:50.187Z,14.5
2022-11-29T11:45:43.352Z,15.1
2022-11-29T11:46:51.703Z,15.1
2022-11-29T11:48:00.044Z,15.1
2022-11-29T11:49:08.636Z,13.2
2022-11-29T11:50:16.934Z,13.2
2022-11-29T11:51:25.273Z,13.2
2022-11-29T11:52:38.392Z,14.6
2022-11-29T11:53:42.168Z,14.6
2022-11-29T11:54:50.493Z,14.6
2022-11-29T11:55:59.035Z,13.4
2022-11-29T11:57:07.370Z,13.4
2022-11-29T11:58:15.711Z,13.4
2022-11-29T11:59:24.266Z,13.7
2022-11-29T12:00:55.749Z,13.7
2022-11-29T12:01:40.941Z,13.7
2022-11-29T12:02:49.555Z,12.1
2022-11-29T12:03:57.854Z,12.1
2022-11-29T12:05:06.236Z,12.1
2022-11-29T12:06:14.761Z,13
2022-11-29T12:07:33.929Z,13
2022-11-29T12:08:31.502Z,13
2022-11-29T12:09:40.001Z,13.6
2022-11-29T12:10:48.334Z,13.6
2022-11-29T12:11:56.667Z,13.6
2022-11-29T12:13:05.225Z,11.3
2022-11-29T12:14:13.569Z,11.3
2022-11-29T12:15:21.907Z,11.3
2022-11-29T12:16:30.455Z,14
2022-11-29T12:17:38.799Z,14
2022-11-29T12:18:47.142Z,14
2022-11-29T12:19:55.688Z,11.6
2022-11-29T12:21:04.041Z,11.6
2022-11-29T12:22:12.359Z,11.6
2022-11-29T12:23:20.909Z,13
2022-11-29T12:24:29.248Z,13
2022-11-29T12:25:37.588Z,13
2022-11-29T12:26:56.740Z,11.4
2022-11-29T12:27:54.485Z,11.4
2022-11-29T12:29:02.835Z,11.4
2022-11-29T12:30:11.379Z,11.1
2022-11-29T12:31:19.726Z,11.1
2022-11-29T12:32:28.048Z,11.1
2022-11-29T12:33:36.598Z,12.6
2022-11-29T12:34:45.354Z,12.6
2022-11-29T12:35:53.277Z,12.6
2022-11-29T12:37:01.848Z,11.7
2022-11-29T12:38:10.172Z,11.7
2022-11-29T12:39:18.499Z,11.7
2022-11-29T12:40:27.031Z,11.1
2022-11-29T12:41:35.376Z,11.1
2022-11-29T12:42:43.705Z,11.1
2022-11-29T12:43:52.273Z,12
2022-11-29T12:45:00.602Z,12
2022-11-29T12:46:08.971Z,12
2022-11-29T12:48:25.796Z,12.9
2022-11-29T12:49:34.131Z,12.9
2022-11-29T12:50:42.689Z,11.7
2022-11-29T12:51:51.001Z,11.7
2022-11-29T12:52:59.358Z,11.7
2022-11-29T12:54:07.876Z,13.2
2022-11-29T12:55:16.210Z,13.2
2022-11-29T12:56:24.557Z,13.2
2022-11-29T12:57:33.115Z,12.9
2022-11-29T12:58:45.743Z,12.9
2022-11-29T12:59:49.792Z,12.9
2022-11-29T13:00:58.349Z,19.4
2022-11-29T13:02:06.739Z,19.4
2022-11-29T13:03:15.096Z,19.4
2022-11-29T13:04:23.576Z,18.4
2022-11-29T13:05:31.915Z,18.4
2022-11-29T13:06:40.260Z,18.4
2022-11-29T13:07:48.877Z,17.299999
2022-11-29T13:08:57.164Z,17.299999
2022-11-29T13:10:05.468Z,17.299999
2022-11-29T13:11:14.029Z,17.1
2022-11-29T13:12:22.365Z,17.1
2022-11-29T13:13:30.704Z,17.1
2022-11-29T13:14:43.580Z,16.5
2022-11-29T13:15:47.581Z,16.5
2022-11-29T13:16:55.909Z,16.5
2022-11-29T13:18:04.451Z,17.5
2022-11-29T13:19:12.795Z,17.5
2022-11-29T13:20:21.128Z,17.5
2022-11-29T13:21:29.665Z,21.6
2022-11-29T13:22:37.999Z,21.6
2022-11-29T13:24:07.703Z,21.6
2022-11-29T13:24:54.916Z,17.9
2022-11-29T13:26:03.208Z,17.9
2022-11-29T13:27:11.554Z,17.9
2022-11-29T13:28:20.099Z,17
2022-11-29T13:29:28.437Z,17
2022-11-29T13:30:36.783Z,17
2022-11-29T13:31:45.424Z,19.9
2022-11-29T13:32:53.660Z,19.9
2022-11-29T13:34:02.004Z,19.9
2022-11-29T13:35:10.559Z,19.9
2022-11-29T13:36:18.899Z,19.9
2022-11-29T13:37:27.222Z,19.9
2022-11-29T13:38:35.767Z,18.6
2022-11-29T13:39:44.111Z,18.6
2022-11-29T13:40:52.478Z,18.6
2022-11-29T13:42:00.981Z,13.3
2022-11-29T13:43:09.325Z,13.3
2022-11-29T13:44:17.658Z,13.3
2022-11-29T13:45:26.202Z,12
2022-11-29T13:46:34.589Z,12
2022-11-29T13:47:42.895Z,12
2022-11-29T13:48:51.442Z,12.2
2022-11-29T13:49:59.789Z,12.2
2022-11-29T13:51:08.143Z,12.2
2022-11-29T13:52:16.689Z,16.700001
2022-11-29T13:53:25.026Z,16.700001
2022-11-29T13:54:33.360Z,16.700001
2022-11-29T13:55:41.908Z,17.9
2022-11-29T13:56:50.264Z,17.9
2022-11-29T13:58:16.159Z,17.9
2022-11-29T13:59:07.115Z,14.6
2022-11-29T14:00:15.455Z,14.6
2022-11-29T14:01:23.831Z,14.6
2022-11-29T14:02:32.375Z,17.9
2022-11-29T14:03:40.713Z,17.9
2022-11-29T14:04:49.040Z,17.9
2022-11-29T14:05:57.599Z,13.6
2022-11-29T14:07:05.934Z,13.6
2022-11-29T14:08:17.904Z,13.6
2022-11-29T14:09:22.830Z,12.7
2022-11-29T14:10:31.167Z,12.7
2022-11-29T14:11:39.515Z,12.7
2022-11-29T14:12:48.074Z,13.7
2022-11-29T14:13:56.396Z,13.7
2022-11-29T14:15:04.729Z,13.7
2022-11-29T14:16:13.343Z,13.8
2022-11-29T14:17:21.601Z,13.8
2022-11-29T14:18:29.955Z,13.8
2022-11-29T14:19:38.526Z,13.1
2022-11-29T14:20:46.830Z,13.1
2022-11-29T14:21:55.178Z,13.1
2022-11-29T14:23:03.748Z,14.1
2022-11-29T14:24:12.082Z,14.1